Rejestracja

Wszystkie dane podawane są w czasie UTC za wyjątkiem miejsc gdzie jest jednoznacznie podane, że jest inaczej. Dane podawane w serwisie mają charakter informacyjny!!!
Informacje w sprawie dostępu do serwisu pod numerem tel. +48 261-828-559 lub +48 261-828-138
Informacja dla żołnierzy i pracowników wojska: Prosimy o niezwłoczną zmianę adresu e-mail w profilu użytkownika na pocztę w domenie @ron.mil.pl
Brak służbowego adresu e-mail skutkuje usunięciem konta.

Aktualna Pogoda
 
Pogoda w Polsce
-4°C Szczecin -6°C Suwałki -1°C Warszawa -3°C Poznan
1°C Opole 0°C Kraków 1°C Rzeszów
Więcej miast w Polsce

Pogoda w Europie
-1°C Berlin 4°C Paryz 3°C Bruksela -2°C Oslo
1°C Praga 9°C Zagrzeb
Więcej miast w Europie

Metary wojskowe test
METAR EPCE 050400Z 34005KT 300V010 8000 BKN040 M02/M04 Q1018 RMK M025 092 7/7=
METAR EPDA 050400Z 30004KT 9999 BKN033 01/M02 Q1020 RMK 014 081 5/5=
METAR EPDE 050400Z 34004KT 6000 -SN BKN012 OVC020 M01/M01 Q1014 RMK M007 094 8/5=
METAR EPIR 050400Z AUTO 32008KT M02/M05 Q1018 RMK M023 083 ///=
METAR EPKS 050400Z 35007KT 9999 FEW070 M01/M01 Q1018 RMK M014 100 2/2=
SPECI EPLK 050425Z 35004KT 320V030 9999 FEW005 SCT012 OVC033 M01/M01 Q1015 RMK M008 100 8/2=
METAR EPLY 050400Z AUTO 35002KT M00/M02 Q1016 RMK M003 087 ///=
METAR EPMB 050400Z 28006KT 9999 SCT050 M02/M02 Q1018 RMK M020 100 3/3=
METAR EPMI 050400Z 33005KT CAVOK M04/M05 Q1019 RMK M041 092 0/0=
METAR EPMM 050400Z 01006KT 9999 BKN008 BKN040 M02/M03 Q1014 RMK M020 095 7/5=
METAR EPOK 050400Z 30009KT 9999 SCT069 M01/M04 Q1018 RMK M014 083 3/3=
METAR EPPR 050400Z 00000KT 9999 BKN056 M01/M04 Q1019 RMK M015 083 5/5=
METAR EPPW 050400Z 01004KT CAVOK M02/M02 Q1018 RMK M018 096 2/2=
METAR EPSN 050400Z 31003KT 9999 FEW050 M04/M04 Q1019 RMK M039 100 2/2=
METAR EPTM 050400Z AUTO 35006KT VV016 M01/M03 Q1015 RMK M013 088 ///=


 

Prawa autorskie©2007 SSH SZ RP. Wszelkie prawa zastrzeżone.